This is the latest recevied weather packets stored in our database for station/object IW4ENL-7. If no packets are shown the sender has not sent any weather packets the latest 10 day(s).
| Time | Temp. | Humidity | Pressure | Rain* | Wind** | Luminosity | Snow |
|---|---|---|---|---|---|---|---|
| 1778163396 | 20.56° C | 59% | 961 hPa | - | - | - | - |
| 1778163213 | 20.56° C | 59% | 961 hPa | - | - | - | - |
| 1778163030 | 20.56° C | 59% | 961 hPa | - | - | - | - |
| 1778162847 | 21.11° C | 59% | 961 hPa | - | - | - | - |
| 1778162664 | 21.11° C | 59% | 961 hPa | - | - | - | - |
| 1778162481 | 21.67° C | 58% | 961 hPa | - | - | - | - |
| 1778162298 | 22.22° C | 58% | 961 hPa | - | - | - | - |
| 1778162116 | 22.78° C | 57% | 961 hPa | - | - | - | - |
| 1778161933 | 23.33° C | 56% | 961 hPa | - | - | - | - |
| 1778161750 | 22.22° C | 58% | 961 hPa | - | - | - | - |
| 1778161384 | 21.11° C | 60% | 961 hPa | - | - | - | - |
| 1778160836 | 23.33° C | 57% | 961 hPa | - | - | - | - |
| 1778160469 | 25.56° C | 55% | 961 hPa | - | - | - | - |
| 1778160286 | 25° C | 56% | 961 hPa | - | - | - | - |
| 1778159920 | 25° C | 55% | 961 hPa | - | - | - | - |
| 1778159738 | 25° C | 54% | 961 hPa | - | - | - | - |
| 1778159555 | 24.44° C | 56% | 961 hPa | - | - | - | - |
| 1778159189 | 24.44° C | 55% | 961 hPa | - | - | - | - |
| 1778159006 | 24.44° C | 55% | 961 hPa | - | - | - | - |
| 1778158823 | 23.33° C | 56% | 961 hPa | - | - | - | - |
| 1778158640 | 23.33° C | 56% | 961 hPa | - | - | - | - |
| 1778158457 | 22.78° C | 56% | 961 hPa | - | - | - | - |
| 1778158274 | 22.78° C | 57% | 961 hPa | - | - | - | - |
| 1778158091 | 22.78° C | 56% | 961 hPa | - | - | - | - |
| 1778157725 | 23.33° C | 56% | 961 hPa | - | - | - | - |
* Rain since midnight (hover to see other rain measurements)
** Current wind speed in m/s (hover to see current wind gust speed)